createdAt,value
2022-08-28T00:04:14.978Z,85.95
2022-08-28T00:09:04.660Z,86.25
2022-08-28T00:13:54.365Z,86.19
2022-08-28T00:18:47.053Z,86.31
2022-08-28T00:23:42.697Z,87.47
2022-08-28T00:28:33.216Z,88.18
2022-08-28T00:33:29.484Z,88.78
2022-08-28T00:38:21.153Z,89.29
2022-08-28T00:43:15.102Z,88.81
2022-08-28T00:48:05.398Z,89.46
2022-08-28T00:53:00.627Z,89.79
2022-08-28T00:57:52.309Z,89.89
2022-08-28T01:02:45.063Z,90.38
2022-08-28T01:07:34.922Z,91.04
2022-08-28T01:12:27.722Z,91.54
2022-08-28T01:17:19.851Z,91.92
2022-08-28T01:22:23.429Z,92.32
2022-08-28T01:27:15.758Z,92.25
2022-08-28T01:32:06.363Z,92.98
2022-08-28T01:36:58.576Z,93.63
2022-08-28T01:41:55.616Z,93.86
2022-08-28T01:46:48.480Z,94.01
2022-08-28T01:51:38.528Z,94.11
2022-08-28T01:56:28.851Z,94.70
2022-08-28T02:01:22.563Z,94.69
2022-08-28T02:06:15.222Z,95.37
2022-08-28T02:11:05.164Z,95.92
2022-08-28T02:15:54.515Z,96.46
2022-08-28T02:20:44.559Z,96.75
2022-08-28T02:25:36.653Z,97.05
2022-08-28T02:30:26.485Z,97.70
2022-08-28T02:35:16.926Z,97.61
2022-08-28T02:40:06.901Z,97.81
2022-08-28T02:44:59.592Z,97.75
2022-08-28T02:49:49.057Z,98.12
2022-08-28T02:54:39.801Z,98.12
2022-08-28T02:59:29.615Z,97.84
2022-08-28T03:04:21.637Z,98.42
2022-08-28T03:09:11.087Z,99.55
2022-08-28T03:14:03.506Z,99.55
2022-08-28T03:18:53.009Z,99.21
2022-08-28T03:23:44.981Z,100.00
2022-08-28T03:28:38.396Z,100.00
2022-08-28T03:33:28.540Z,100.00
2022-08-28T03:38:18.436Z,99.89
2022-08-28T03:43:11.696Z,99.43
2022-08-28T03:48:01.053Z,100.00
2022-08-28T03:52:50.806Z,100.00
2022-08-28T03:57:40.614Z,100.00
2022-08-28T04:02:32.593Z,100.00
2022-08-28T04:07:22.687Z,100.00
2022-08-28T04:12:12.763Z,100.00
2022-08-28T04:17:02.157Z,100.00
2022-08-28T04:21:54.496Z,100.00
2022-08-28T04:26:44.187Z,100.00
2022-08-28T04:31:33.845Z,100.00
2022-08-28T04:36:23.348Z,100.00
2022-08-28T04:41:16.338Z,100.00
2022-08-28T04:46:07.292Z,100.00
2022-08-28T04:50:56.832Z,100.00
2022-08-28T04:55:54.458Z,100.00
2022-08-28T05:00:48.742Z,100.00
2022-08-28T05:05:44.535Z,100.00
2022-08-28T05:10:35.659Z,100.00
2022-08-28T05:15:24.988Z,100.00
2022-08-28T05:20:17.217Z,100.00
2022-08-28T05:25:07.138Z,100.00
2022-08-28T05:30:01.219Z,100.00
2022-08-28T05:34:52.864Z,100.00
2022-08-28T05:39:45.925Z,100.00
2022-08-28T05:44:40.346Z,100.00
2022-08-28T05:49:30.666Z,100.00
2022-08-28T05:54:21.189Z,100.00
2022-08-28T05:59:16.938Z,100.00
2022-08-28T06:04:11.972Z,100.00
2022-08-28T06:09:08.024Z,100.00
2022-08-28T06:13:57.757Z,100.00
2022-08-28T06:18:51.616Z,100.00
2022-08-28T06:23:41.578Z,100.00
2022-08-28T06:28:31.016Z,100.00
2022-08-28T06:33:21.548Z,100.00
2022-08-28T06:38:19.783Z,100.00
2022-08-28T06:43:11.789Z,100.00
2022-08-28T06:48:02.754Z,100.00
2022-08-28T06:53:27.825Z,100.00
2022-08-28T06:58:22.848Z,100.00
2022-08-28T07:03:12.547Z,100.00
2022-08-28T07:08:02.015Z,100.00
2022-08-28T07:12:52.404Z,100.00
2022-08-28T07:17:44.486Z,100.00
2022-08-28T07:22:33.921Z,100.00
2022-08-28T07:27:25.133Z,100.00
2022-08-28T07:32:15.861Z,100.00
2022-08-28T07:37:15.227Z,100.00
2022-08-28T07:42:05.569Z,100.00
2022-08-28T07:46:56.335Z,100.00
2022-08-28T07:51:46.815Z,98.34
2022-08-28T07:56:40.871Z,97.31
2022-08-28T08:01:32.252Z,96.14
2022-08-28T08:06:21.892Z,96.08
2022-08-28T08:11:16.577Z,95.50
2022-08-28T08:16:11.258Z,95.09
2022-08-28T08:21:00.952Z,93.47
2022-08-28T08:25:56.347Z,93.34
2022-08-28T08:30:45.832Z,93.56
2022-08-28T08:35:38.515Z,92.61
2022-08-28T08:40:28.452Z,92.01
2022-08-28T08:45:21.454Z,91.52
2022-08-28T08:50:13.365Z,89.60
2022-08-28T08:55:09.933Z,87.88
2022-08-28T08:59:59.834Z,79.37
2022-08-28T09:04:52.618Z,74.85
2022-08-28T09:09:47.776Z,76.19
2022-08-28T09:14:47.680Z,68.23
2022-08-28T09:19:37.443Z,67.07
2022-08-28T09:24:28.817Z,66.61
2022-08-28T09:29:20.169Z,65.56
2022-08-28T09:34:32.586Z,68.83
2022-08-28T09:39:26.955Z,72.06
2022-08-28T09:44:17.429Z,62.96
2022-08-28T09:49:11.973Z,66.43
2022-08-28T09:54:05.954Z,63.53
2022-08-28T09:58:57.236Z,62.89
2022-08-28T10:03:51.274Z,61.34
2022-08-28T10:08:50.167Z,61.39
2022-08-28T10:13:44.997Z,62.01
2022-08-28T10:18:38.643Z,61.61
2022-08-28T10:23:32.078Z,61.55
2022-08-28T10:28:31.574Z,61.28
2022-08-28T10:33:32.449Z,57.70
2022-08-28T10:38:26.823Z,60.16
2022-08-28T10:43:19.388Z,54.13
2022-08-28T10:48:12.140Z,55.34
2022-08-28T10:53:07.356Z,53.84
2022-08-28T10:58:00.355Z,50.35
2022-08-28T11:02:52.765Z,49.59
2022-08-28T11:07:45.180Z,49.33
2022-08-28T11:12:45.927Z,50.06
2022-08-28T11:17:41.888Z,49.17
2022-08-28T11:22:33.117Z,49.95
2022-08-28T11:27:33.588Z,52.54
2022-08-28T11:32:47.105Z,54.36
2022-08-28T11:37:40.521Z,54.86
2022-08-28T11:42:38.367Z,52.64
2022-08-28T11:47:41.363Z,54.12
2022-08-28T11:52:38.817Z,54.25
2022-08-28T11:57:31.882Z,52.15
2022-08-28T12:02:36.958Z,52.14
2022-08-28T12:07:36.011Z,49.94
2022-08-28T12:12:40.757Z,49.89
2022-08-28T12:17:41.522Z,50.65
2022-08-28T12:22:46.621Z,52.30
2022-08-28T12:27:38.991Z,50.69
2022-08-28T12:32:33.515Z,52.07
2022-08-28T12:37:28.475Z,50.43
2022-08-28T12:42:22.480Z,48.95
2022-08-28T12:47:15.214Z,47.41
2022-08-28T12:52:16.966Z,48.44
2022-08-28T12:57:08.303Z,50.26
2022-08-28T13:02:04.160Z,48.89
2022-08-28T13:07:00.725Z,48.23
2022-08-28T13:11:51.908Z,48.57
2022-08-28T13:16:42.653Z,48.25
2022-08-28T13:21:37.428Z,49.41
2022-08-28T13:26:28.894Z,51.46
2022-08-28T13:31:24.955Z,49.08
2022-08-28T13:36:25.203Z,48.77
2022-08-28T13:41:20.978Z,47.59
2022-08-28T13:46:10.548Z,50.20
2022-08-28T13:51:01.477Z,49.08
2022-08-28T13:55:54.208Z,47.90
2022-08-28T14:00:50.050Z,50.21
2022-08-28T14:05:39.658Z,47.88
2022-08-28T14:10:29.119Z,47.27
2022-08-28T14:15:19.629Z,47.48
2022-08-28T14:20:17.644Z,48.07
2022-08-28T14:25:07.508Z,45.20
2022-08-28T14:29:56.944Z,45.90
2022-08-28T14:34:50.688Z,45.97
2022-08-28T14:39:44.613Z,44.80
2022-08-28T14:44:49.376Z,46.15
2022-08-28T14:49:42.639Z,44.54
2022-08-28T14:54:35.355Z,44.61
2022-08-28T14:59:28.769Z,43.29
2022-08-28T15:04:20.251Z,43.27
2022-08-28T15:09:09.957Z,45.26
2022-08-28T15:14:04.078Z,43.62
2022-08-28T15:18:56.984Z,44.09
2022-08-28T15:23:47.195Z,41.64
2022-08-28T15:28:37.652Z,42.58
2022-08-28T15:33:27.073Z,43.67
2022-08-28T15:38:19.064Z,45.55
2022-08-28T15:43:08.817Z,45.53
2022-08-28T15:48:00.376Z,44.76
2022-08-28T15:52:50.177Z,44.53
2022-08-28T15:57:45.384Z,45.01
2022-08-28T16:02:34.820Z,46.23
2022-08-28T16:07:25.272Z,45.29
2022-08-28T16:12:14.647Z,44.77
2022-08-28T16:17:11.012Z,45.33
2022-08-28T16:22:00.807Z,46.07
2022-08-28T16:26:50.524Z,44.01
2022-08-28T16:31:40.252Z,43.27
2022-08-28T16:36:33.564Z,44.63
2022-08-28T16:41:24.072Z,45.15
2022-08-28T16:46:19.535Z,44.01
2022-08-28T16:51:09.453Z,44.12
2022-08-28T16:56:01.489Z,45.00
2022-08-28T17:00:52.707Z,45.88
2022-08-28T17:05:46.869Z,46.48
2022-08-28T17:10:38.881Z,47.88
2022-08-28T17:15:31.930Z,46.45
2022-08-28T17:20:34.988Z,46.26
2022-08-28T17:25:25.896Z,47.23
2022-08-28T17:30:18.437Z,49.35
2022-08-28T17:35:14.784Z,49.78
2022-08-28T17:40:05.699Z,50.04
2022-08-28T17:44:56.260Z,49.97
2022-08-28T17:49:49.949Z,50.88
2022-08-28T17:54:43.203Z,52.42
2022-08-28T17:59:34.527Z,52.89
2022-08-28T18:04:26.144Z,53.25
2022-08-28T18:09:18.044Z,54.03
2022-08-28T18:14:11.264Z,53.99
2022-08-28T18:19:01.973Z,54.94
2022-08-28T18:23:52.171Z,55.68
2022-08-28T18:28:42.291Z,56.24
2022-08-28T18:33:36.806Z,56.71
2022-08-28T18:38:28.617Z,57.94
2022-08-28T18:43:20.659Z,57.11
2022-08-28T18:48:13.437Z,57.58
2022-08-28T18:53:08.056Z,58.01
2022-08-28T18:57:59.176Z,58.33
2022-08-28T19:02:51.060Z,58.80
2022-08-28T19:07:41.704Z,59.97
2022-08-28T19:16:02.431Z,62.91
2022-08-28T19:20:53.899Z,62.81
2022-08-28T19:25:44.429Z,64.76
2022-08-28T19:30:35.611Z,65.01
2022-08-28T19:35:29.110Z,64.83
2022-08-28T19:40:18.730Z,66.25
2022-08-28T19:45:09.868Z,68.59
2022-08-28T19:49:59.438Z,69.70
2022-08-28T19:54:52.090Z,68.59
2022-08-28T19:59:45.574Z,70.78
2022-08-28T20:04:35.266Z,69.61
2022-08-28T20:09:24.699Z,70.61
2022-08-28T20:14:17.526Z,73.11
2022-08-28T20:19:07.809Z,73.10
2022-08-28T20:23:57.326Z,72.13
2022-08-28T20:28:46.695Z,72.64
2022-08-28T20:33:40.685Z,72.37
2022-08-28T20:38:30.031Z,73.14
2022-08-28T20:43:19.462Z,73.41
2022-08-28T20:48:08.871Z,73.59
2022-08-28T20:53:03.818Z,74.16
2022-08-28T20:57:53.164Z,74.30
2022-08-28T21:02:42.900Z,73.61
2022-08-28T21:07:33.497Z,74.69
2022-08-28T21:12:25.635Z,75.36
2022-08-28T21:17:15.080Z,76.13
2022-08-28T21:22:13.782Z,75.86
2022-08-28T21:27:05.299Z,76.23
2022-08-28T21:32:01.775Z,78.62
2022-08-28T21:36:53.625Z,77.08
2022-08-28T21:41:44.007Z,82.83
2022-08-28T21:46:34.145Z,78.92
2022-08-28T21:51:27.837Z,81.75
2022-08-28T21:56:19.510Z,82.97
2022-08-28T22:01:09.674Z,88.70
2022-08-28T22:06:00.611Z,86.14
2022-08-28T22:10:53.739Z,89.57
2022-08-28T22:15:45.428Z,87.43
2022-08-28T22:20:36.875Z,91.40
2022-08-28T22:25:27.452Z,87.17
2022-08-28T22:30:20.615Z,88.23
2022-08-28T22:35:11.384Z,92.39
2022-08-28T22:40:02.558Z,92.70
2022-08-28T22:44:59.916Z,88.84
2022-08-28T22:49:53.067Z,92.80
2022-08-28T22:54:43.667Z,90.92
2022-08-28T22:59:33.983Z,92.54
2022-08-28T23:04:24.242Z,90.51
2022-08-28T23:09:19.799Z,89.70
2022-08-28T23:14:09.601Z,89.85
2022-08-28T23:19:09.061Z,89.36
2022-08-28T23:24:00.305Z,88.92
2022-08-28T23:28:54.585Z,90.78
2022-08-28T23:33:44.184Z,88.28
2022-08-28T23:38:34.307Z,90.14
2022-08-28T23:43:24.984Z,89.33
2022-08-28T23:48:17.905Z,91.75
2022-08-28T23:53:08.080Z,92.68
2022-08-28T23:57:58.325Z,91.30
